Briefing drone pour Bourg-de-peage

Rechercher une autre localisation

Conditions de vol :


Nous sommes le : Dimanche 24 octobre 2021
Il est 18:36 UTC (20:36 LT)

Lever de soleil : 05:41 UTC (07:41 LT)
Coucher de soleil : 17:06 UTC (19:06 LT)

Météo

L'essentiel des conditions de vol

VIGILANCE MÉTÉO FRANCE - Drôme (26)
Pas de vigilances particulieres
METAR de LFLU
LFLU 241800Z AUTO 12003KT CAVOK 10/07 Q1022

Date d'émission: 24/10/2021
Heure d'émission: 18:00 UTC
Vent: 120° pour 3 KT (6 km/h)
Visibilité horizontale: > 10 km
Plafond : Plafond et visibilité OK (CAVOK)
Température: 10 °C
Point de rosée: 7 °C
Humidité: 82%
Pression (QNH): 1022 hPa
Prévision 24h pour Valence (10 km)
Vent : 24° pour 2 KT (5 km/h)
Temperature Maxi: 18 °C
Temperature Min: 18 °C
Humidité : 55%
Condition : Ciel dégagé



Warning: count(): Parameter must be an array or an object that implements Countable in /homepages/6/d509196549/htdocs/droneoxygene/briefing.php on line 743
WEBCAM POUR BOURG-DE-PEAGE

Réglementation

Voler en sécurité

CARTES AERONAUTIQUE 1/500.000
CARTES VAC (LFLU)
SUP AIP




Chargement des AIP...
NOTAM (BOURG-DE-PEAGE + Terrain à proximité / FIR )




Chargement des NOTAMS...
CONTACT PREFECTURE 26
Drôme (26) : ddt-satem@drome.gouv.fr


Avertissement : Les données mises à disposition sont indicatives. Oxygène Drone ne pourra être tenu responsable de dégâts causés aux biens et aux personnes.